Time;durP1;ratioP1;P1;durP2;ratioP2;P2;SDS_P1;SDS_P2;PMS_P1;PMS_P2;Temp;Humidity;BMP_temperature;BMP_pressure;BME280_temperature;BME280_humidity;BME280_pressure;Samples;Min_cycle;Max_cycle;Signal;HPM_P1;HPM_P2
2023/04/28 00:00:25;;;;;;;15.20;10.48;;;14.50;78.60;;;;;;4994796;28;20464;-75
2023/04/28 00:02:52;;;;;;;19.65;11.68;;;14.50;78.80;;;;;;4994701;28;20084;-78
2023/04/28 00:05:18;;;;;;;19.75;11.80;;;14.40;78.60;;;;;;4994807;28;20096;-73
2023/04/28 00:07:44;;;;;;;18.65;11.40;;;14.40;79.20;;;;;;4994628;28;20468;-70
2023/04/28 00:10:10;;;;;;;17.95;10.93;;;14.50;79.10;;;;;;4994886;28;20484;-73
2023/04/28 00:12:35;;;;;;;13.88;10.70;;;14.50;78.60;;;;;;4994846;28;20018;-71
2023/04/28 00:15:01;;;;;;;17.67;11.27;;;14.50;78.50;;;;;;4994895;28;20026;-72
2023/04/28 00:17:26;;;;;;;16.48;11.23;;;14.50;78.70;;;;;;4994364;28;20045;-71
2023/04/28 00:19:52;;;;;;;13.65;10.68;;;14.50;78.90;;;;;;4994955;28;20033;-72
2023/04/28 00:22:18;;;;;;;17.88;12.02;;;14.50;79.20;;;;;;4994517;28;20022;-72
2023/04/28 00:24:44;;;;;;;14.35;10.48;;;14.50;79.30;;;;;;4994573;28;20034;-72
2023/04/28 00:27:10;;;;;;;17.95;11.73;;;14.50;79.60;;;;;;4994615;28;20117;-68
2023/04/28 00:29:38;;;;;;;17.20;11.45;;;14.40;79.10;;;;;;4994435;28;20439;-69
2023/04/28 00:32:04;;;;;;;19.05;11.93;;;14.40;79.30;;;;;;4994188;28;20109;-74
2023/04/28 00:34:32;;;;;;;14.70;11.13;;;14.40;79.40;;;;;;4994363;28;20113;-73
2023/04/28 00:36:58;;;;;;;16.88;10.50;;;14.40;79.50;;;;;;4993890;28;20062;-75
2023/04/28 00:39:25;;;;;;;14.73;11.07;;;14.40;79.40;;;;;;4994539;28;20065;-74
2023/04/28 00:41:51;;;;;;;14.25;10.52;;;14.30;79.60;;;;;;4994065;28;20030;-78
2023/04/28 00:44:16;;;;;;;15.95;11.50;;;14.40;79.60;;;;;;4994268;28;20023;-72
2023/04/28 00:46:42;;;;;;;14.43;10.35;;;14.30;79.70;;;;;;4993830;28;20110;-73
2023/04/28 00:49:08;;;;;;;16.42;11.00;;;14.30;79.60;;;;;;4994168;28;20038;-75
2023/04/28 00:51:34;;;;;;;13.75;11.10;;;14.30;79.80;;;;;;4994090;28;20026;-71
2023/04/28 00:54:00;;;;;;;16.95;11.98;;;14.30;80.30;;;;;;4993850;28;20045;-70
2023/04/28 00:56:29;;;;;;;17.30;12.07;;;14.30;80.30;;;;;;4994057;28;20026;-74
2023/04/28 00:58:56;;;;;;;17.00;12.30;;;14.30;80.10;;;;;;4993957;28;20391;-72
2023/04/28 01:01:21;;;;;;;15.77;11.23;;;14.30;80.10;;;;;;4993743;28;20073;-76
2023/04/28 01:03:47;;;;;;;19.90;11.90;;;14.30;80.60;;;;;;4993891;28;20120;-70
2023/04/28 01:06:13;;;;;;;16.83;12.75;;;14.30;80.40;;;;;;4993483;28;20032;-72
2023/04/28 01:08:39;;;;;;;15.90;12.60;;;14.30;80.20;;;;;;4993693;28;20050;-69
2023/04/28 01:11:05;;;;;;;15.52;11.95;;;14.30;80.80;;;;;;4993859;28;20069;-68
2023/04/28 01:13:31;;;;;;;17.30;12.70;;;14.20;80.70;;;;;;4993712;28;20471;-72
2023/04/28 01:15:57;;;;;;;14.80;12.02;;;14.30;80.90;;;;;;4993476;28;20036;-73
2023/04/28 01:18:24;;;;;;;17.98;12.70;;;14.20;80.80;;;;;;4993656;28;20030;-73
2023/04/28 01:20:49;;;;;;;20.45;13.18;;;14.20;80.60;;;;;;4993858;28;20018;-76
2023/04/28 01:23:16;;;;;;;16.98;12.88;;;14.20;80.60;;;;;;4993399;28;20038;-71
2023/04/28 01:25:43;;;;;;;13.85;11.38;;;14.20;80.80;;;;;;4993654;28;20014;-74
2023/04/28 01:28:09;;;;;;;17.92;12.02;;;14.20;81.00;;;;;;4993460;28;20030;-72
2023/04/28 01:30:35;;;;;;;15.85;12.43;;;14.20;81.30;;;;;;4993326;28;20392;-70
2023/04/28 01:33:02;;;;;;;18.67;13.27;;;14.20;81.50;;;;;;4993422;28;20019;-73
2023/04/28 01:35:28;;;;;;;16.83;11.90;;;14.20;82.00;;;;;;4993646;28;20034;-71
2023/04/28 01:37:54;;;;;;;14.95;12.40;;;14.20;82.50;;;;;;4993167;28;20023;-70
2023/04/28 01:40:19;;;;;;;18.27;13.07;;;14.20;83.10;;;;;;4993525;28;20027;-70
2023/04/28 01:42:45;;;;;;;16.23;13.10;;;14.10;83.50;;;;;;4993474;28;20084;-70
2023/04/28 01:45:11;;;;;;;16.05;12.85;;;14.10;84.10;;;;;;4993151;28;20041;-76
2023/04/28 01:47:36;;;;;;;16.85;12.25;;;14.00;84.20;;;;;;4996276;28;20035;-70
2023/04/28 01:50:02;;;;;;;15.70;13.32;;;14.00;84.80;;;;;;4997371;28;20108;-74
2023/04/28 01:52:27;;;;;;;17.52;13.57;;;14.00;85.00;;;;;;4997407;28;20014;-70
2023/04/28 01:54:53;;;;;;;20.10;14.27;;;14.00;85.00;;;;;;4997244;28;20037;-69
2023/04/28 01:57:19;;;;;;;15.25;12.75;;;14.10;85.30;;;;;;4997314;28;20026;-70
2023/04/28 01:59:45;;;;;;;17.85;14.35;;;14.00;85.30;;;;;;4996884;28;20536;-71
2023/04/28 02:02:11;;;;;;;16.83;13.23;;;14.00;85.60;;;;;;4997208;28;20023;-73
2023/04/28 02:04:37;;;;;;;19.85;13.30;;;14.10;85.70;;;;;;4997106;28;20030;-70
2023/04/28 02:07:03;;;;;;;19.70;13.02;;;14.00;85.90;;;;;;4997097;28;20054;-70
2023/04/28 02:09:29;;;;;;;16.42;12.73;;;14.00;86.20;;;;;;4997148;28;20065;-70
2023/04/28 02:11:54;;;;;;;15.38;12.90;;;14.00;87.30;;;;;;4997060;28;20022;-73
2023/04/28 02:14:20;;;;;;;16.95;13.48;;;14.00;86.90;;;;;;4996669;28;20026;-73
2023/04/28 02:16:46;;;;;;;17.63;13.48;;;14.00;86.80;;;;;;4997109;28;20103;-73
2023/04/28 02:19:11;;;;;;;18.88;14.63;;;14.00;87.20;;;;;;4997031;28;20381;-72
2023/04/28 02:21:37;;;;;;;18.23;14.20;;;14.00;87.80;;;;;;4996898;28;20388;-75
2023/04/28 02:24:03;;;;;;;17.70;13.70;;;14.00;87.80;;;;;;4996637;28;20023;-76
2023/04/28 02:26:29;;;;;;;18.63;14.43;;;14.00;87.90;;;;;;4996881;28;20037;-69
2023/04/28 02:28:54;;;;;;;18.30;14.73;;;14.00;87.80;;;;;;4996181;28;20038;-68
2023/04/28 02:31:20;;;;;;;18.55;15.05;;;14.00;89.00;;;;;;4996750;28;20028;-74
2023/04/28 02:33:46;;;;;;;16.60;13.82;;;14.00;88.50;;;;;;4996710;28;20033;-75
2023/04/28 02:36:11;;;;;;;18.98;15.38;;;14.00;88.70;;;;;;4996385;28;20066;-72
2023/04/28 02:38:37;;;;;;;16.55;14.63;;;14.00;88.60;;;;;;4996610;28;20022;-68
2023/04/28 02:41:04;;;;;;;19.83;14.43;;;14.00;88.90;;;;;;4996267;28;20134;-74
2023/04/28 02:43:30;;;;;;;20.27;15.55;;;14.00;89.00;;;;;;4995305;28;20053;-69
2023/04/28 02:45:56;;;;;;;19.33;14.70;;;14.00;89.30;;;;;;4996341;28;20054;-68
2023/04/28 02:48:23;;;;;;;18.17;14.70;;;13.90;89.30;;;;;;4996291;28;20030;-72
2023/04/28 02:50:49;;;;;;;18.02;15.38;;;14.00;89.80;;;;;;4996529;28;20109;-68
2023/04/28 02:53:15;;;;;;;22.27;15.77;;;14.00;90.10;;;;;;4996410;28;20034;-69
2023/04/28 02:55:41;;;;;;;19.58;16.95;;;13.90;90.20;;;;;;4996102;28;20022;-71
2023/04/28 02:58:06;;;;;;;20.10;16.10;;;13.90;90.30;;;;;;4995409;28;20022;-72
2023/04/28 03:00:32;;;;;;;19.08;15.90;;;13.90;90.20;;;;;;4996088;28;20031;-74
2023/04/28 03:02:58;;;;;;;17.38;15.50;;;13.90;90.30;;;;;;5004425;28;20426;-71
2023/04/28 03:05:24;;;;;;;19.85;15.52;;;13.90;90.40;;;;;;5004825;28;20022;-75
2023/04/28 03:07:49;;;;;;;18.33;15.82;;;13.90;90.50;;;;;;4995032;28;20454;-71
2023/04/28 03:10:15;;;;;;;19.67;16.00;;;13.90;90.60;;;;;;4994349;28;20045;-72
2023/04/28 03:12:40;;;;;;;21.27;16.33;;;13.90;90.60;;;;;;4995674;28;20022;-75
2023/04/28 03:15:07;;;;;;;19.83;15.70;;;14.00;90.70;;;;;;4995854;28;20018;-73
2023/04/28 03:17:35;;;;;;;19.33;16.00;;;13.90;90.80;;;;;;4996067;28;20052;-68
2023/04/28 03:20:01;;;;;;;19.90;16.38;;;13.90;91.00;;;;;;4995814;28;20373;-71
2023/04/28 03:22:27;;;;;;;20.45;15.30;;;13.90;91.30;;;;;;4995582;28;20407;-74
2023/04/28 03:24:53;;;;;;;20.30;16.58;;;13.80;91.40;;;;;;4995722;28;20019;-72
2023/04/28 03:27:18;;;;;;;19.15;16.50;;;13.90;91.40;;;;;;4995392;28;20026;-72
2023/04/28 03:29:44;;;;;;;17.85;15.25;;;13.90;91.60;;;;;;4994527;28;20030;-71
2023/04/28 03:32:09;;;;;;;17.63;15.73;;;13.90;91.70;;;;;;4995637;28;20037;-71
2023/04/28 03:34:35;;;;;;;20.52;16.80;;;13.80;91.90;;;;;;4995631;28;20031;-68
2023/04/28 03:37:01;;;;;;;21.05;16.40;;;13.90;91.90;;;;;;4993959;28;20089;-72
2023/04/28 03:39:26;;;;;;;21.23;17.00;;;13.90;92.00;;;;;;4995443;28;20022;-72
2023/04/28 03:41:52;;;;;;;18.83;16.17;;;13.90;92.20;;;;;;4995040;28;20037;-70
2023/04/28 03:44:18;;;;;;;19.92;17.83;;;13.90;92.30;;;;;;4995492;28;20404;-71
2023/04/28 03:46:43;;;;;;;20.20;16.38;;;13.80;92.50;;;;;;4995352;28;20030;-72
2023/04/28 03:49:09;;;;;;;22.27;15.82;;;13.90;92.60;;;;;;4995229;28;20038;-68
2023/04/28 03:51:34;;;;;;;19.58;17.13;;;13.90;92.80;;;;;;4993889;28;20069;-73
2023/04/28 03:54:00;;;;;;;18.92;16.80;;;13.90;93.10;;;;;;4995369;28;20022;-69
2023/04/28 03:56:26;;;;;;;22.85;17.73;;;13.90;93.10;;;;;;4994809;28;20023;-69
2023/04/28 03:58:51;;;;;;;23.17;18.85;;;13.80;93.30;;;;;;4995076;28;20040;-70
2023/04/28 04:01:17;;;;;;;20.20;18.10;;;13.80;93.50;;;;;;4995239;28;20704;-71
2023/04/28 04:03:43;;;;;;;20.40;18.30;;;13.90;94.00;;;;;;4995438;28;20026;-71
2023/04/28 04:06:08;;;;;;;25.42;19.50;;;13.80;94.20;;;;;;4996002;28;20026;-76
2023/04/28 04:08:34;;;;;;;22.08;19.42;;;13.90;94.40;;;;;;4996580;28;20053;-71
2023/04/28 04:11:00;;;;;;;24.67;18.85;;;13.80;94.40;;;;;;4995561;28;20018;-70
2023/04/28 04:13:25;;;;;;;22.48;19.88;;;13.90;94.60;;;;;;4995202;28;20034;-70
2023/04/28 04:15:51;;;;;;;22.23;19.63;;;13.90;94.90;;;;;;4993586;28;20046;-69
2023/04/28 04:18:17;;;;;;;24.52;20.13;;;13.80;95.10;;;;;;4994816;28;20530;-73
2023/04/28 04:20:43;;;;;;;24.30;19.73;;;13.90;95.50;;;;;;4993311;28;20068;-73
2023/04/28 04:23:08;;;;;;;23.63;20.02;;;13.90;95.80;;;;;;4994554;28;20519;-75
2023/04/28 04:25:35;;;;;;;25.73;20.27;;;13.80;95.50;;;;;;4994192;28;20076;-75
2023/04/28 04:28:00;;;;;;;27.95;20.88;;;13.90;95.60;;;;;;4994378;28;20117;-75
2023/04/28 04:30:26;;;;;;;25.55;20.50;;;13.90;95.80;;;;;;4994642;28;20105;-74
2023/04/28 04:32:52;;;;;;;27.05;19.73;;;13.90;95.90;;;;;;4994519;28;20029;-72
2023/04/28 04:35:18;;;;;;;21.95;19.73;;;13.80;96.10;;;;;;4994503;28;20050;-77
2023/04/28 04:37:43;;;;;;;23.95;20.75;;;13.90;96.10;;;;;;4994247;28;20117;-76
2023/04/28 04:40:09;;;;;;;25.70;21.38;;;13.90;96.40;;;;;;4994037;28;20034;-74
2023/04/28 04:42:35;;;;;;;25.92;21.27;;;13.80;96.40;;;;;;4992763;28;20129;-75
2023/04/28 04:45:00;;;;;;;29.48;22.67;;;13.80;96.40;;;;;;4994189;28;20034;-72
2023/04/28 04:47:27;;;;;;;23.42;20.40;;;13.90;96.40;;;;;;4992902;28;20500;-76
2023/04/28 04:49:52;;;;;;;25.17;21.20;;;13.80;96.40;;;;;;4994120;28;20059;-74
2023/04/28 04:52:18;;;;;;;27.92;21.48;;;13.80;96.60;;;;;;4994184;28;20093;-75
2023/04/28 04:54:44;;;;;;;24.20;21.70;;;13.80;96.70;;;;;;4992585;28;20129;-73
2023/04/28 04:57:10;;;;;;;24.20;21.00;;;13.80;97.00;;;;;;4993925;28;20038;-70
2023/04/28 04:59:36;;;;;;;25.02;21.73;;;13.80;96.90;;;;;;4994237;28;20487;-72
2023/04/28 05:02:02;;;;;;;24.58;21.73;;;13.80;96.90;;;;;;5008707;28;20105;-72
2023/04/28 05:04:27;;;;;;;25.20;21.38;;;13.80;97.00;;;;;;5013499;28;20030;-78
2023/04/28 05:06:53;;;;;;;25.45;21.77;;;13.80;97.20;;;;;;5013382;28;20049;-74
2023/04/28 05:09:19;;;;;;;25.67;21.80;;;13.80;97.20;;;;;;5013079;28;20521;-68
2023/04/28 05:11:44;;;;;;;16.13;12.90;;;13.80;97.30;;;;;;5013445;28;20049;-74
2023/04/28 05:14:10;;;;;;;14.75;13.15;;;14.00;95.20;;;;;;5013316;28;20038;-73
2023/04/28 05:16:37;;;;;;;16.65;13.45;;;14.20;94.30;;;;;;5013331;28;20018;-72
2023/04/28 05:19:03;;;;;;;15.95;13.00;;;14.30;94.00;;;;;;5011738;28;20029;-73
2023/04/28 05:21:29;;;;;;;13.73;12.20;;;14.40;93.80;;;;;;5004210;28;20053;-73
2023/04/28 05:23:56;;;;;;;23.77;13.70;;;14.50;93.90;;;;;;4999957;28;20022;-73
2023/04/28 05:26:22;;;;;;;13.23;11.43;;;14.50;93.70;;;;;;5007550;28;20025;-73
2023/04/28 05:28:47;;;;;;;13.45;12.05;;;14.50;93.40;;;;;;5013172;28;20128;-73
2023/04/28 05:31:13;;;;;;;13.43;10.90;;;14.60;93.40;;;;;;5030802;28;20463;-75
2023/04/28 05:33:39;;;;;;;13.82;11.63;;;14.60;93.30;;;;;;5009672;28;20625;-75
2023/04/28 05:36:05;;;;;;;12.73;11.38;;;14.60;93.40;;;;;;5012643;28;20121;-75
2023/04/28 05:38:32;;;;;;;14.85;12.60;;;14.60;93.50;;;;;;5012232;28;20045;-73
2023/04/28 05:40:58;;;;;;;23.58;17.38;;;14.60;93.50;;;;;;5011126;28;20022;-77
2023/04/28 05:43:23;;;;;;;19.15;16.90;;;14.30;96.60;;;;;;5013610;28;20034;-74
2023/04/28 05:45:49;;;;;;;21.35;19.13;;;14.00;97.80;;;;;;5005629;28;20104;-73
2023/04/28 05:48:15;;;;;;;21.95;18.60;;;13.90;98.40;;;;;;5009139;28;20041;-75
2023/04/28 05:50:41;;;;;;;21.58;18.88;;;13.80;98.90;;;;;;5011472;28;20026;-74
2023/04/28 05:53:06;;;;;;;22.90;19.33;;;13.80;99.00;;;;;;5015772;28;20160;-73
2023/04/28 05:55:35;;;;;;;22.20;17.50;;;13.80;99.20;;;;;;5009215;28;20037;-74
2023/04/28 05:58:01;;;;;;;21.48;19.20;;;13.80;99.30;;;;;;5016200;28;20026;-73
2023/04/28 06:00:26;;;;;;;21.90;18.95;;;13.80;99.70;;;;;;5008026;28;20095;-71
2023/04/28 06:02:52;;;;;;;21.40;18.10;;;13.90;99.60;;;;;;5007215;28;20530;-73
2023/04/28 06:05:18;;;;;;;21.25;18.73;;;14.00;99.50;;;;;;5008210;28;20042;-73
2023/04/28 06:07:43;;;;;;;20.30;18.17;;;14.00;99.90;;;;;;5006822;28;20053;-73
2023/04/28 06:10:10;;;;;;;15.95;12.90;;;14.00;99.60;;;;;;5007378;28;20022;-73
2023/04/28 06:12:36;;;;;;;18.60;16.60;;;14.30;98.30;;;;;;4997972;28;20030;-76
2023/04/28 06:15:02;;;;;;;18.98;16.98;;;14.20;98.90;;;;;;5004717;28;20026;-73
2023/04/28 06:17:30;;;;;;;20.80;18.60;;;14.20;99.00;;;;;;5010732;28;20026;-74
2023/04/28 06:19:57;;;;;;;23.23;18.08;;;14.20;99.50;;;;;;5008012;28;20021;-71
2023/04/28 06:22:25;;;;;;;20.05;17.92;;;14.10;99.70;;;;;;5006605;28;20030;-71
2023/04/28 06:24:51;;;;;;;20.73;15.25;;;14.10;99.90;;;;;;5006766;28;20022;-72
2023/04/28 06:27:17;;;;;;;20.50;17.25;;;14.20;99.50;;;;;;5004056;28;20048;-74
2023/04/28 06:29:43;;;;;;;20.95;18.80;;;14.50;98.80;;;;;;5009410;28;20545;-76
2023/04/28 06:32:09;;;;;;;24.02;19.33;;;14.20;99.90;;;;;;5011947;28;20161;-79
2023/04/28 06:34:36;;;;;;;21.33;19.13;;;14.20;99.90;;;;;;5014163;28;20444;-79
2023/04/28 06:37:01;;;;;;;21.10;18.92;;;14.20;99.90;;;;;;5015617;28;20053;-76
2023/04/28 06:39:27;;;;;;;21.15;18.88;;;14.20;99.90;;;;;;5015204;28;20076;-81
2023/04/28 06:41:52;;;;;;;19.75;17.10;;;14.20;99.90;;;;;;5016004;28;20022;-77
2023/04/28 06:44:18;;;;;;;21.98;19.08;;;14.30;99.90;;;;;;5015869;28;20494;-80
2023/04/28 06:46:44;;;;;;;19.95;17.35;;;14.30;99.90;;;;;;5016342;28;20052;-75
2023/04/28 06:49:10;;;;;;;18.77;16.45;;;14.40;99.90;;;;;;5015547;28;20523;-78
2023/04/28 06:51:36;;;;;;;18.60;16.65;;;14.40;99.90;;;;;;5015952;28;20459;-78
2023/04/28 06:54:02;;;;;;;19.10;16.88;;;14.50;99.90;;;;;;5015915;28;20463;-79
2023/04/28 06:56:27;;;;;;;17.10;14.95;;;14.50;99.90;;;;;;5015930;28;20054;-78
2023/04/28 06:58:57;;;;;;;15.68;14.05;;;14.70;99.90;;;;;;5016022;28;20029;-77
2023/04/28 07:01:23;;;;;;;16.67;14.88;;;14.90;99.90;;;;;;5015676;28;20022;-77
2023/04/28 07:03:49;;;;;;;13.45;10.40;;;15.00;99.90;;;;;;5015389;28;20045;-79
2023/04/28 07:06:15;;;;;;;15.35;13.75;;;15.10;99.30;;;;;;5015194;28;20030;-76
2023/04/28 07:08:42;;;;;;;15.10;13.15;;;15.10;99.70;;;;;;5015633;28;20041;-76
2023/04/28 07:11:08;;;;;;;14.70;12.63;;;15.10;99.50;;;;;;5015587;28;20535;-78
2023/04/28 07:13:33;;;;;;;15.63;13.98;;;15.10;99.60;;;;;;5015645;28;20148;-77
2023/04/28 07:15:59;;;;;;;13.48;11.88;;;15.00;99.90;;;;;;5015389;28;20026;-76
2023/04/28 07:18:25;;;;;;;12.25;9.15;;;15.10;99.20;;;;;;5015305;28;20026;-78
2023/04/28 07:20:50;;;;;;;9.07;7.18;;;15.20;98.70;;;;;;5015335;28;20478;-79
2023/04/28 07:23:16;;;;;;;9.43;7.85;;;15.40;96.90;;;;;;5015502;28;20516;-77
2023/04/28 07:25:42;;;;;;;8.70;6.97;;;15.40;96.80;;;;;;5015426;28;20096;-77
2023/04/28 07:28:08;;;;;;;7.50;6.13;;;15.40;96.50;;;;;;5015141;28;20030;-79
2023/04/28 07:30:34;;;;;;;9.98;6.80;;;15.50;96.10;;;;;;5015218;28;20072;-79
2023/04/28 07:33:01;;;;;;;8.32;6.47;;;15.50;95.30;;;;;;5014750;28;20431;-77
2023/04/28 07:35:27;;;;;;;8.18;6.43;;;15.60;95.20;;;;;;5015044;28;20030;-78
2023/04/28 07:37:53;;;;;;;7.00;5.55;;;15.60;94.90;;;;;;5014981;28;20057;-77
2023/04/28 07:40:19;;;;;;;8.23;5.55;;;15.70;94.60;;;;;;5015050;28;20033;-77
2023/04/28 07:42:45;;;;;;;6.43;5.15;;;15.70;94.80;;;;;;5015209;28;20044;-78
2023/04/28 07:45:11;;;;;;;7.15;4.75;;;15.70;94.50;;;;;;5014840;28;20463;-77
2023/04/28 07:47:37;;;;;;;6.07;4.80;;;15.70;94.50;;;;;;5014489;28;20029;-82
2023/04/28 07:50:05;;;;;;;6.82;4.72;;;15.70;94.60;;;;;;5014371;28;20026;-80
2023/04/28 07:52:31;;;;;;;6.47;5.00;;;15.70;94.30;;;;;;5014977;28;20042;-79
2023/04/28 07:54:58;;;;;;;6.95;4.10;;;15.80;94.20;;;;;;5015032;28;20056;-75
2023/04/28 07:57:23;;;;;;;6.32;4.40;;;15.80;94.50;;;;;;5014620;28;20578;-81
2023/04/28 07:59:49;;;;;;;6.72;4.03;;;15.90;94.10;;;;;;5015177;28;20105;-77
2023/04/28 08:02:15;;;;;;;5.40;3.45;;;15.80;94.00;;;;;;5014301;28;20487;-76
2023/04/28 08:04:41;;;;;;;5.47;4.00;;;15.80;94.50;;;;;;5014483;28;20018;-78
2023/04/28 08:07:08;;;;;;;5.57;3.50;;;15.90;94.30;;;;;;5014347;28;20053;-78
2023/04/28 08:09:34;;;;;;;5.18;3.53;;;15.90;94.60;;;;;;5014575;28;20037;-78
2023/04/28 08:12:00;;;;;;;5.43;3.53;;;15.90;94.10;;;;;;5012956;28;20076;-81
2023/04/28 08:14:26;;;;;;;4.22;3.30;;;16.00;94.30;;;;;;5014615;28;20156;-80
2023/04/28 08:16:52;;;;;;;5.30;2.70;;;16.00;94.40;;;;;;5012951;28;20497;-82
2023/04/28 08:19:18;;;;;;;4.05;2.50;;;16.00;94.40;;;;;;5014366;28;20028;-79
2023/04/28 08:21:43;;;;;;;3.65;2.22;;;16.10;94.60;;;;;;5014105;28;20026;-77
2023/04/28 08:24:09;;;;;;;4.88;2.40;;;16.10;94.60;;;;;;5014276;28;20435;-77
2023/04/28 08:26:36;;;;;;;2.97;2.33;;;16.10;95.00;;;;;;5014272;28;20112;-81
2023/04/28 08:29:02;;;;;;;3.47;2.40;;;16.10;94.60;;;;;;5014256;28;20487;-77
2023/04/28 08:31:27;;;;;;;3.55;2.05;;;16.10;94.60;;;;;;5013584;28;20060;-81
2023/04/28 08:33:53;;;;;;;2.97;1.83;;;16.10;94.90;;;;;;5014023;28;20032;-81
2023/04/28 08:36:20;;;;;;;2.70;1.67;;;16.20;94.50;;;;;;5013793;28;20121;-80
2023/04/28 08:38:46;;;;;;;1.50;1.33;;;16.20;94.30;;;;;;5013910;28;20018;-75
2023/04/28 08:41:14;;;;;;;3.85;1.80;;;16.20;95.20;;;;;;5013899;28;20407;-77
2023/04/28 08:43:41;;;;;;;2.92;1.58;;;16.20;94.70;;;;;;5013969;28;20050;-76
2023/04/28 08:46:07;;;;;;;2.47;1.35;;;16.30;94.40;;;;;;5013529;28;20101;-75
2023/04/28 08:48:42;;;;;;;1.70;1.30;;;16.40;94.30;;;;;;5012477;28;20405;-78
2023/04/28 08:51:08;;;;;;;1.70;1.30;;;16.40;94.60;;;;;;5013741;28;20030;-79
2023/04/28 08:53:38;;;;;;;1.45;1.20;;;16.40;94.30;;;;;;5013648;28;20034;-78
2023/04/28 08:56:06;;;;;;;1.95;1.60;;;16.40;94.60;;;;;;5013265;28;20041;-77
2023/04/28 08:58:35;;;;;;;0.90;0.77;;;16.40;94.50;;;;;;5013597;28;20501;-83
2023/04/28 09:01:03;;;;;;;1.05;0.90;;;16.50;94.40;;;;;;5013270;28;20364;-79
2023/04/28 09:03:29;;;;;;;2.25;1.00;;;16.50;94.50;;;;;;5013581;28;20014;-81
2023/04/28 09:05:55;;;;;;;1.63;1.10;;;16.50;94.50;;;;;;5013488;28;20041;-77
2023/04/28 09:08:21;;;;;;;2.25;1.35;;;16.50;94.30;;;;;;5013732;28;20041;-78
2023/04/28 09:10:46;;;;;;;1.48;1.00;;;16.60;94.80;;;;;;5013681;28;20069;-78
2023/04/28 09:13:24;;;;;;;3.65;1.02;;;16.60;94.40;;;;;;5013228;28;20432;-77
2023/04/28 09:15:50;;;;;;;1.70;0.80;;;16.60;94.50;;;;;;5013171;28;20112;-78
2023/04/28 09:18:16;;;;;;;1.48;0.90;;;16.60;94.60;;;;;;5013389;28;20022;-78
2023/04/28 09:20:43;;;;;;;1.30;0.80;;;16.60;94.50;;;;;;5013339;28;20442;-76
2023/04/28 09:23:14;;;;;;;1.08;0.90;;;16.60;94.70;;;;;;5013230;28;20018;-77
2023/04/28 09:25:54;;;;;;;1.27;0.63;;;16.70;94.70;;;;;;5013198;28;20379;-80
2023/04/28 09:28:21;;;;;;;2.00;1.02;;;16.80;94.80;;;;;;5012743;28;20037;-80
2023/04/28 09:30:46;;;;;;;1.08;0.90;;;16.80;94.60;;;;;;5013532;28;20411;-80
2023/04/28 09:33:12;;;;;;;1.20;0.80;;;16.70;94.70;;;;;;5013331;28;20522;-80
2023/04/28 09:35:39;;;;;;;1.20;0.63;;;16.70;94.90;;;;;;5012740;28;20033;-81
2023/04/28 09:38:05;;;;;;;1.27;0.80;;;16.80;95.00;;;;;;5012952;28;20022;-82
2023/04/28 09:40:31;;;;;;;1.00;0.60;;;16.80;95.00;;;;;;5013266;28;20022;-80
2023/04/28 09:42:56;;;;;;;2.53;0.70;;;16.80;95.10;;;;;;5012823;28;20028;-80
2023/04/28 09:45:23;;;;;;;1.10;0.75;;;16.90;95.10;;;;;;5013323;28;20037;-80
2023/04/28 09:47:49;;;;;;;5.65;1.02;;;16.80;95.00;;;;;;5012971;28;20030;-79
2023/04/28 09:50:16;;;;;;;1.05;0.60;;;16.80;95.10;;;;;;5013058;28;20030;-79
2023/04/28 09:52:55;;;;;;;0.90;0.40;;;16.90;95.10;;;;;;5012985;28;20021;-80
2023/04/28 09:55:22;;;;;;;1.25;0.50;;;16.90;95.00;;;;;;5013176;28;20020;-81
2023/04/28 09:57:53;;;;;;;0.75;0.65;;;16.90;94.90;;;;;;5012586;28;20028;-76
2023/04/28 10:00:19;;;;;;;0.95;0.40;;;16.90;95.00;;;;;;5012855;28;20480;-78
2023/04/28 10:02:45;;;;;;;0.80;0.38;;;16.90;95.20;;;;;;5012792;28;20472;-81
2023/04/28 10:05:11;;;;;;;0.98;0.50;;;17.00;95.10;;;;;;5012664;28;20034;-78
2023/04/28 10:07:38;;;;;;;0.98;0.40;;;17.00;95.10;;;;;;5012863;28;20030;-81
2023/04/28 10:10:06;;;;;;;0.82;0.30;;;17.00;95.20;;;;;;5016514;28;20113;-81
2023/04/28 10:12:31;;;;;;;1.40;0.50;;;17.00;95.10;;;;;;5014416;28;20014;-80
2023/04/28 10:14:58;;;;;;;3.00;0.63;;;17.00;95.40;;;;;;5006958;28;20033;-77
2023/04/28 10:17:24;;;;;;;0.52;0.30;;;17.10;95.20;;;;;;4997233;28;20033;-77
2023/04/28 10:19:53;;;;;;;0.60;0.38;;;17.00;95.10;;;;;;5013482;28;20018;-76
2023/04/28 10:22:36;;;;;;;0.98;0.22;;;17.00;95.30;;;;;;5014284;28;20050;-75
2023/04/28 10:25:05;;;;;;;1.58;0.38;;;17.00;95.10;;;;;;5013728;28;20037;-76
2023/04/28 10:27:33;;;;;;;1.00;0.38;;;17.00;95.10;;;;;;5015098;28;20030;-76
2023/04/28 10:30:18;;;;;;;2.85;0.40;;;17.10;95.20;;;;;;5016308;28;20116;-76
2023/04/28 10:32:47;;;;;;;2.53;0.40;;;17.10;95.10;;;;;;5016466;28;20021;-74
2023/04/28 10:35:22;;;;;;;1.15;0.30;;;17.20;95.10;;;;;;5016305;28;20060;-74
2023/04/28 10:38:07;;;;;;;1.17;0.30;;;17.10;95.40;;;;;;5014781;28;20093;-74
2023/04/28 10:40:33;;;;;;;0.90;0.20;;;17.20;95.30;;;;;;5016126;28;20080;-75
2023/04/28 10:42:59;;;;;;;0.90;0.50;;;17.30;95.00;;;;;;5015836;28;20022;-78
2023/04/28 10:45:47;;;;;;;3.83;0.30;;;17.30;95.30;;;;;;5013982;28;20034;-77
2023/04/28 10:48:17;;;;;;;1.42;0.20;;;17.40;95.00;;;;;;5007749;28;20137;-77
2023/04/28 10:51:01;;;;;;;0.82;0.20;;;17.50;95.00;;;;;;5014438;28;20018;-77
2023/04/28 10:53:44;;;;;;;0.55;0.15;;;17.60;95.10;;;;;;5015582;28;20022;-77
2023/04/28 10:56:15;;;;;;;0.73;0.30;;;17.50;95.20;;;;;;5015440;28;20034;-77
2023/04/28 10:58:44;;;;;;;0.32;0.20;;;17.60;95.20;;;;;;5015816;28;20018;-77
2023/04/28 11:01:25;;;;;;;1.30;0.50;;;17.60;94.90;;;;;;5014734;28;20510;-77
2023/04/28 11:04:06;;;;;;;1.80;0.40;;;17.60;95.10;;;;;;5012616;28;20029;-77
2023/04/28 11:06:33;;;;;;;1.65;0.40;;;17.70;94.90;;;;;;5015600;28;20054;-77
2023/04/28 11:09:16;;;;;;;1.35;0.30;;;17.70;94.80;;;;;;5015638;28;20038;-76
2023/04/28 11:11:56;;;;;;;0.50;0.10;;;17.70;94.80;;;;;;5012214;28;20042;-77
2023/04/28 11:14:22;;;;;;;1.73;0.20;;;17.80;94.60;;;;;;5015741;28;20034;-76
2023/04/28 11:16:49;;;;;;;0.65;0.30;;;17.80;94.40;;;;;;5015443;28;20109;-77
2023/04/28 11:19:18;;;;;;;2.55;0.30;;;17.70;94.60;;;;;;5013520;28;20028;-75
2023/04/28 11:21:45;;;;;;;1.10;0.38;;;17.80;94.30;;;;;;5013678;28;20080;-76
2023/04/28 11:24:11;;;;;;;1.13;0.40;;;17.80;94.20;;;;;;5014794;28;20083;-77
2023/04/28 11:26:38;;;;;;;3.70;0.30;;;17.90;94.10;;;;;;5015503;28;20030;-76
2023/04/28 11:29:04;;;;;;;1.25;0.50;;;17.90;94.10;;;;;;5013561;28;20034;-75
2023/04/28 11:31:30;;;;;;;7.03;0.68;;;17.90;94.10;;;;;;5006557;28;20407;-78
2023/04/28 11:34:00;;;;;;;2.80;0.50;;;17.90;94.10;;;;;;5014552;28;20026;-77
2023/04/28 11:36:34;;;;;;;2.95;0.45;;;17.90;94.30;;;;;;5014743;28;20399;-77
2023/04/28 11:39:03;;;;;;;3.28;0.50;;;18.00;94.50;;;;;;5012591;28;20075;-77
2023/04/28 11:41:30;;;;;;;4.07;0.25;;;17.90;94.40;;;;;;5012235;28;20030;-77
2023/04/28 11:43:56;;;;;;;1.15;0.10;;;18.00;94.40;;;;;;5014802;28;20026;-78
2023/04/28 11:46:24;;;;;;;3.60;0.30;;;18.00;94.30;;;;;;5014426;28;20482;-78
2023/04/28 11:49:03;;;;;;;3.00;0.25;;;18.10;94.40;;;;;;5014548;28;20037;-78
2023/04/28 11:51:37;;;;;;;2.97;0.30;;;18.00;94.30;;;;;;5012765;28;20430;-78
2023/04/28 11:54:06;;;;;;;1.05;0.20;;;18.00;94.30;;;;;;5011733;28;20037;-78
2023/04/28 11:56:37;;;;;;;3.05;0.73;;;18.00;94.20;;;;;;5011098;28;20029;-78
2023/04/28 11:59:09;;;;;;;4.38;0.43;;;18.10;94.40;;;;;;5014499;28;20036;-78
2023/04/28 12:01:43;;;;;;;1.63;0.30;;;18.20;94.40;;;;;;5011727;28;20030;-80
2023/04/28 12:04:09;;;;;;;1.60;0.82;;;18.10;94.50;;;;;;4996971;28;20026;-82
2023/04/28 12:06:34;;;;;;;1.63;0.70;;;18.20;94.50;;;;;;5013718;28;20041;-73
2023/04/28 12:09:04;;;;;;;2.55;0.70;;;18.20;94.50;;;;;;5010708;28;20046;-78
2023/04/28 12:11:30;;;;;;;1.60;0.52;;;18.20;94.80;;;;;;5009967;28;20053;-77
2023/04/28 12:14:03;;;;;;;0.95;0.60;;;18.20;94.80;;;;;;5008989;28;20368;-77
2023/04/28 12:16:43;;;;;;;1.52;0.47;;;18.30;94.90;;;;;;5010128;28;20156;-77
2023/04/28 12:19:10;;;;;;;3.13;0.50;;;18.30;95.30;;;;;;5011756;28;20033;-78
2023/04/28 12:21:38;;;;;;;2.53;0.52;;;18.30;95.10;;;;;;5013808;28;20014;-77
2023/04/28 12:24:17;;;;;;;4.30;0.40;;;18.30;95.10;;;;;;4994807;28;20026;-78
2023/04/28 12:26:43;;;;;;;1.10;0.50;;;18.40;95.10;;;;;;4992785;28;20010;-78
2023/04/28 12:29:09;;;;;;;2.22;0.50;;;18.40;95.10;;;;;;5009943;28;20040;-78
2023/04/28 12:31:49;;;;;;;0.70;0.40;;;18.40;95.00;;;;;;5011645;28;20028;-77
2023/04/28 12:34:15;;;;;;;0.98;0.40;;;18.40;95.10;;;;;;5012968;28;20478;-78